Time,TemperatureF,DewpointF,PressureIn,WindDirection,WindDirectionDegrees,WindSpeedMPH,WindSpeedGustMPH,Humidity,HourlyPrecipIn,Conditions,Clouds,dailyrainin,SolarRadiationWatts/m^2,SoftwareType,DateUTC
2013-03-16 00:03:00,45.0,31.0,-100.00,WNW,285,2.0,6.0,57,0.00,,,0.00,0.000000,,2013-03-16 04:03:00,
2013-03-16 00:33:00,45.0,32.0,-100.00,SE,126,3.0,4.0,60,0.00,,,0.00,0.000000,,2013-03-16 04:33:00,
2013-03-16 00:43:00,45.0,32.0,-100.00,SE,126,3.0,4.0,60,0.00,,,0.00,0.000000,,2013-03-16 04:43:00,
2013-03-16 00:53:00,45.0,32.0,-100.00,SE,126,3.0,4.0,60,0.00,,,0.00,0.000000,,2013-03-16 04:53:00,
2013-03-16 01:03:00,45.0,32.0,-100.00,SE,126,3.0,4.0,60,0.00,,,0.00,0.000000,,2013-03-16 05:03:00,
2013-03-16 01:12:00,45.0,32.0,-100.00,SE,126,3.0,4.0,60,0.00,,,0.00,0.000000,,2013-03-16 05:12:00,
2013-03-16 01:32:00,41.0,31.0,-100.00,SE,139,1.0,4.0,67,0.00,,,0.00,0.000000,,2013-03-16 05:32:00,
2013-03-16 01:42:00,41.0,31.0,-100.00,SE,139,1.0,4.0,67,0.00,,,0.00,0.000000,,2013-03-16 05:42:00,
2013-03-16 01:53:00,41.0,31.0,-100.00,SE,139,1.0,4.0,67,0.00,,,0.00,0.000000,,2013-03-16 05:53:00,
2013-03-16 02:02:00,41.0,31.0,-100.00,SE,139,1.0,4.0,67,0.00,,,0.00,0.000000,,2013-03-16 06:02:00,
2013-03-16 02:12:00,41.0,31.0,-100.00,SE,139,1.0,4.0,67,0.00,,,0.00,0.000000,,2013-03-16 06:12:00,
2013-03-16 02:32:00,39.0,31.0,-100.00,North,7,2.0,6.0,73,0.00,,,0.00,0.000000,,2013-03-16 06:32:00,
2013-03-16 02:42:00,39.0,31.0,-100.00,North,7,2.0,6.0,73,0.00,,,0.00,0.000000,,2013-03-16 06:42:00,
2013-03-16 02:52:00,39.0,31.0,-100.00,North,7,2.0,6.0,73,0.00,,,0.00,0.000000,,2013-03-16 06:52:00,
2013-03-16 03:02:00,39.0,31.0,-100.00,North,7,2.0,6.0,73,0.00,,,0.00,0.000000,,2013-03-16 07:02:00,
2013-03-16 03:12:00,39.0,31.0,-100.00,North,7,2.0,6.0,73,0.00,,,0.00,0.000000,,2013-03-16 07:12:00,
2013-03-16 03:42:00,42.0,32.0,-100.00,ENE,63,2.0,5.0,67,0.00,,,0.00,0.000000,,2013-03-16 07:42:00,
2013-03-16 03:53:00,42.0,32.0,-100.00,ENE,63,2.0,5.0,67,0.00,,,0.00,0.000000,,2013-03-16 07:53:00,
2013-03-16 04:03:00,42.0,32.0,-100.00,ENE,63,2.0,5.0,67,0.00,,,0.00,0.000000,,2013-03-16 08:03:00,
2013-03-16 04:12:00,42.0,32.0,-100.00,ENE,63,2.0,5.0,67,0.00,,,0.00,0.000000,,2013-03-16 08:12:00,
2013-03-16 04:42:00,44.0,33.0,-100.00,NE,35,3.0,5.0,64,0.00,,,0.00,0.000000,,2013-03-16 08:42:00,
2013-03-16 04:52:00,44.0,33.0,-100.00,NE,35,3.0,5.0,64,0.00,,,0.00,0.000000,,2013-03-16 08:52:00,
2013-03-16 05:02:00,44.0,33.0,-100.00,NE,35,3.0,5.0,64,0.00,,,0.00,0.000000,,2013-03-16 09:02:00,
2013-03-16 05:12:00,44.0,33.0,-100.00,NE,35,3.0,5.0,64,0.00,,,0.00,0.000000,,2013-03-16 09:12:00,
2013-03-16 05:33:00,43.0,33.0,-100.00,NE,36,3.0,5.0,67,0.00,,,0.00,0.000000,,2013-03-16 09:33:00,
2013-03-16 05:43:00,43.0,33.0,-100.00,NE,36,3.0,5.0,67,0.00,,,0.00,0.000000,,2013-03-16 09:43:00,
2013-03-16 05:53:00,43.0,33.0,-100.00,NE,36,3.0,5.0,67,0.00,,,0.00,0.000000,,2013-03-16 09:53:00,
2013-03-16 06:03:00,43.0,33.0,-100.00,NE,36,3.0,5.0,67,0.00,,,0.00,0.000000,,2013-03-16 10:03:00,
2013-03-16 06:12:00,43.0,33.0,-100.00,NE,36,3.0,5.0,67,0.00,,,0.00,0.000000,,2013-03-16 10:12:00,
2013-03-16 06:32:00,43.0,34.0,-100.00,NNE,27,1.0,5.0,69,0.00,,,0.00,0.000000,,2013-03-16 10:32:00,
2013-03-16 06:42:00,43.0,34.0,-100.00,NNE,27,1.0,5.0,69,0.00,,,0.00,0.000000,,2013-03-16 10:42:00,
2013-03-16 06:53:00,43.0,34.0,-100.00,NNE,27,1.0,5.0,69,0.00,,,0.00,0.000000,,2013-03-16 10:53:00,
2013-03-16 07:03:00,43.0,34.0,-100.00,NNE,27,1.0,5.0,69,0.00,,,0.00,0.000000,,2013-03-16 11:03:00,
2013-03-16 07:12:00,43.0,34.0,-100.00,NNE,27,1.0,5.0,69,0.00,,,0.00,0.000000,,2013-03-16 11:12:00,
2013-03-16 07:33:00,42.0,35.0,-100.00,WNW,300,1.0,3.0,75,0.00,,,0.00,0.000000,,2013-03-16 11:33:00,
2013-03-16 07:43:00,42.0,35.0,-100.00,WNW,300,1.0,3.0,75,0.00,,,0.00,0.000000,,2013-03-16 11:43:00,
2013-03-16 07:53:00,42.0,35.0,-100.00,WNW,300,1.0,3.0,75,0.00,,,0.00,0.000000,,2013-03-16 11:53:00,
2013-03-16 08:02:00,42.0,35.0,-100.00,WNW,300,1.0,3.0,75,0.00,,,0.00,0.000000,,2013-03-16 12:02:00,
2013-03-16 08:12:00,42.0,35.0,-100.00,WNW,300,1.0,3.0,75,0.00,,,0.00,0.000000,,2013-03-16 12:12:00,
2013-03-16 08:32:00,42.0,34.0,-100.00,NW,310,2.0,3.0,73,0.00,,,0.00,3.000000,,2013-03-16 12:32:00,
2013-03-16 08:43:00,42.0,34.0,-100.00,NW,310,2.0,3.0,73,0.00,,,0.00,3.000000,,2013-03-16 12:43:00,
2013-03-16 08:53:00,42.0,34.0,-100.00,NW,310,2.0,3.0,73,0.00,,,0.00,3.000000,,2013-03-16 12:53:00,
2013-03-16 09:02:00,42.0,34.0,-100.00,NW,310,2.0,3.0,73,0.00,,,0.00,3.000000,,2013-03-16 13:02:00,
2013-03-16 09:12:00,42.0,34.0,-100.00,NW,310,2.0,3.0,73,0.00,,,0.00,3.000000,,2013-03-16 13:12:00,
2013-03-16 09:43:00,43.0,36.0,-100.00,South,170,2.0,6.0,75,0.00,,,0.00,30.000000,,2013-03-16 13:43:00,
2013-03-16 09:53:00,43.0,36.0,-100.00,South,170,2.0,6.0,75,0.00,,,0.00,30.000000,,2013-03-16 13:53:00,
2013-03-16 10:03:00,43.0,36.0,-100.00,South,170,2.0,6.0,75,0.00,,,0.00,30.000000,,2013-03-16 14:03:00,
2013-03-16 10:12:00,43.0,36.0,-100.00,South,170,2.0,6.0,75,0.00,,,0.00,30.000000,,2013-03-16 14:12:00,
2013-03-16 10:13:00,45.0,34.0,-100.00,SE,130,4.0,9.0,64,0.00,,,0.00,97.000000,,2013-03-16 14:13:00,
2013-03-16 10:42:00,45.0,34.0,-100.00,SE,130,4.0,9.0,64,0.00,,,0.00,97.000000,,2013-03-16 14:42:00,
2013-03-16 10:53:00,45.0,34.0,-100.00,SE,130,4.0,9.0,64,0.00,,,0.00,97.000000,,2013-03-16 14:53:00,
2013-03-16 11:03:00,45.0,34.0,-100.00,SE,130,4.0,9.0,64,0.00,,,0.00,97.000000,,2013-03-16 15:03:00,
2013-03-16 11:13:00,46.0,32.0,-100.00,SE,132,5.0,10.0,59,0.00,,,0.00,177.000000,,2013-03-16 15:13:00,
2013-03-16 11:44:00,46.0,32.0,-100.00,SE,132,5.0,10.0,59,0.00,,,0.00,177.000000,,2013-03-16 15:44:00,
2013-03-16 11:53:00,46.0,32.0,-100.00,SE,132,5.0,10.0,59,0.00,,,0.00,177.000000,,2013-03-16 15:53:00,
2013-03-16 12:03:00,46.0,32.0,-100.00,SE,132,5.0,10.0,59,0.00,,,0.00,177.000000,,2013-03-16 16:03:00,
2013-03-16 12:13:00,48.0,35.0,-100.00,SE,135,6.0,14.0,61,0.00,,,0.00,224.000000,,2013-03-16 16:13:00,
2013-03-16 12:43:00,48.0,35.0,-100.00,SE,135,6.0,14.0,61,0.00,,,0.00,224.000000,,2013-03-16 16:43:00,
2013-03-16 12:53:00,48.0,35.0,-100.00,SE,135,6.0,14.0,61,0.00,,,0.00,224.000000,,2013-03-16 16:53:00,
2013-03-16 13:03:00,48.0,35.0,-100.00,SE,135,6.0,14.0,61,0.00,,,0.00,224.000000,,2013-03-16 17:03:00,
2013-03-16 13:13:00,49.0,35.0,-100.00,SE,141,5.0,9.0,59,0.00,,,0.00,170.000000,,2013-03-16 17:13:00,
2013-03-16 13:43:00,49.0,35.0,-100.00,SE,141,5.0,9.0,59,0.00,,,0.00,170.000000,,2013-03-16 17:43:00,
2013-03-16 13:53:00,49.0,35.0,-100.00,SE,141,5.0,9.0,59,0.00,,,0.00,170.000000,,2013-03-16 17:53:00,
2013-03-16 14:03:00,49.0,35.0,-100.00,SE,141,5.0,9.0,59,0.00,,,0.00,170.000000,,2013-03-16 18:03:00,
2013-03-16 14:33:00,48.0,35.0,-100.00,East,82,5.0,8.0,60,0.00,,,0.00,134.000000,,2013-03-16 18:33:00,
2013-03-16 14:43:00,48.0,35.0,-100.00,East,82,5.0,8.0,60,0.00,,,0.00,134.000000,,2013-03-16 18:43:00,
2013-03-16 14:53:00,48.0,35.0,-100.00,East,82,5.0,8.0,60,0.00,,,0.00,134.000000,,2013-03-16 18:53:00,
2013-03-16 15:02:00,48.0,35.0,-100.00,East,82,5.0,8.0,60,0.00,,,0.00,134.000000,,2013-03-16 19:02:00,
2013-03-16 15:12:00,48.0,35.0,-100.00,East,82,5.0,8.0,60,0.00,,,0.00,134.000000,,2013-03-16 19:12:00,
2013-03-16 15:42:00,41.0,34.0,-100.00,NNW,336,5.0,9.0,77,0.00,,,0.00,71.000000,,2013-03-16 19:42:00,
2013-03-16 15:53:00,41.0,34.0,-100.00,NNW,336,5.0,9.0,77,0.00,,,0.00,71.000000,,2013-03-16 19:53:00,
2013-03-16 16:03:00,41.0,34.0,-100.00,NNW,336,5.0,9.0,77,0.00,,,0.00,71.000000,,2013-03-16 20:03:00,
2013-03-16 16:12:00,41.0,34.0,-100.00,NNW,336,5.0,9.0,77,0.00,,,0.00,71.000000,,2013-03-16 20:12:00,
2013-03-16 16:42:00,40.0,36.0,-100.00,NW,325,5.0,11.0,84,0.00,,,0.00,61.000000,,2013-03-16 20:42:00,
2013-03-16 16:53:00,40.0,36.0,-100.00,NW,325,5.0,11.0,84,0.00,,,0.00,61.000000,,2013-03-16 20:53:00,
2013-03-16 17:02:00,40.0,36.0,-100.00,NW,325,5.0,11.0,84,0.00,,,0.00,61.000000,,2013-03-16 21:02:00,
2013-03-16 17:12:00,40.0,36.0,-100.00,NW,325,5.0,11.0,84,0.00,,,0.00,61.000000,,2013-03-16 21:12:00,
2013-03-16 17:13:00,38.0,35.0,-100.00,NNW,331,4.0,11.0,89,0.00,,,0.00,40.000000,,2013-03-16 21:13:00,
2013-03-16 17:43:00,38.0,35.0,-100.00,NNW,331,4.0,11.0,89,0.00,,,0.00,40.000000,,2013-03-16 21:43:00,
2013-03-16 17:53:00,38.0,35.0,-100.00,NNW,331,4.0,11.0,89,0.00,,,0.00,40.000000,,2013-03-16 21:53:00,
2013-03-16 18:03:00,38.0,35.0,-100.00,NNW,331,4.0,11.0,89,0.00,,,0.00,40.000000,,2013-03-16 22:03:00,
2013-03-16 18:13:00,37.0,35.0,-100.00,NW,325,4.0,11.0,92,0.00,,,0.00,40.000000,,2013-03-16 22:13:00,
2013-03-16 18:33:00,37.0,35.0,-100.00,NW,325,4.0,11.0,92,0.00,,,0.00,40.000000,,2013-03-16 22:33:00,
2013-03-16 18:42:00,37.0,35.0,-100.00,NW,325,4.0,11.0,92,0.00,,,0.00,40.000000,,2013-03-16 22:42:00,
2013-03-16 18:53:00,37.0,35.0,-100.00,NW,325,4.0,11.0,92,0.00,,,0.00,40.000000,,2013-03-16 22:53:00,
2013-03-16 19:02:00,37.0,35.0,-100.00,NW,325,4.0,11.0,92,0.00,,,0.00,40.000000,,2013-03-16 23:02:00,
2013-03-16 19:42:00,36.0,34.0,-100.00,NNW,328,4.0,9.0,91,0.00,,,0.00,8.000000,,2013-03-16 23:42:00,
2013-03-16 19:53:00,36.0,34.0,-100.00,NNW,328,4.0,9.0,91,0.00,,,0.00,8.000000,,2013-03-16 23:53:00,
2013-03-16 20:02:00,36.0,34.0,-100.00,NNW,328,4.0,9.0,91,0.00,,,0.00,8.000000,,2013-03-17 00:02:00,
2013-03-16 20:12:00,36.0,34.0,-100.00,NNW,328,4.0,9.0,91,0.00,,,0.00,8.000000,,2013-03-17 00:12:00,
2013-03-16 21:13:00,36.0,33.0,-100.00,NNW,334,4.0,7.0,89,-99.99,,,0.00,0.000000,,2013-03-17 01:13:00,
2013-03-16 21:43:00,36.0,33.0,-100.00,NNW,334,4.0,7.0,89,-99.99,,,0.00,0.000000,,2013-03-17 01:43:00,
2013-03-16 21:53:00,36.0,33.0,-100.00,NNW,334,4.0,7.0,89,-99.99,,,0.00,0.000000,,2013-03-17 01:53:00,
2013-03-16 22:03:00,36.0,33.0,-100.00,NNW,334,4.0,7.0,89,-99.99,,,0.00,0.000000,,2013-03-17 02:03:00,
2013-03-16 22:43:00,36.0,33.0,-100.00,NW,314,2.0,6.0,89,0.00,,,0.00,0.000000,,2013-03-17 02:43:00,
2013-03-16 22:53:00,36.0,33.0,-100.00,NW,314,2.0,6.0,89,0.00,,,0.00,0.000000,,2013-03-17 02:53:00,
2013-03-16 23:03:00,36.0,33.0,-100.00,NW,314,2.0,6.0,89,0.00,,,0.00,0.000000,,2013-03-17 03:03:00,
2013-03-16 23:12:00,36.0,33.0,-100.00,NW,314,2.0,6.0,89,0.00,,,0.00,0.000000,,2013-03-17 03:12:00,
2013-03-16 23:13:00,36.0,33.0,-100.00,NW,315,2.0,5.0,89,0.00,,,0.00,0.000000,,2013-03-17 03:13:00,
2013-03-16 23:34:00,36.0,33.0,-100.00,NW,315,2.0,5.0,89,0.00,,,0.00,0.000000,,2013-03-17 03:34:00,
2013-03-16 23:43:00,36.0,33.0,-100.00,NW,315,2.0,5.0,89,0.00,,,0.00,0.000000,,2013-03-17 03:43:00,
2013-03-16 23:53:00,36.0,33.0,-100.00,NW,315,2.0,5.0,89,0.00,,,0.00,0.000000,,2013-03-17 03:53:00,